KSEP

Details ICAO KSEP
Name CLARK FLD MUNI
Region United States
Timezone America/Chicago (UTC-5.0)
Plans Departing 9
Arriving 13
Stats Elevation 1,321 ft / 403 m (AMSL)
Location 32.215393° -98.179132°
Runways 2
Magnetic Variation 4.057° E
Sunrise 2018-05-27 11:30:00 UTC / 2018-05-27 06:30:00 Local
Sunset 2018-05-28 01:32:41 UTC / 2018-05-27 20:32:41 Local
Advertisement - Login to hide

Runways

ID Width Length Bearing (true) Bearing (mag) Surface Threshold Offset Overrun Length
03 50 ft / 15 m 2,505 ft / 763 m 39.12° 35.06° Asphalt 0 ft / 0 m 0 ft / 0 m
14 75 ft / 23 m 4,207 ft / 1,282 m 149.31° 145.25° Asphalt 0 ft / 0 m 0 ft / 0 m
21 50 ft / 15 m 2,505 ft / 763 m 219.12° 215.06° Asphalt 0 ft / 0 m 0 ft / 0 m
32 75 ft / 23 m 4,207 ft / 1,282 m 329.31° 325.25° Asphalt 0 ft / 0 m 0 ft / 0 m

Map

Weather


0- 5 10 15 20 25 30 35+ Temperature / ° C

Clouds and Precipitation
Forecast for 2018-05-27 18:00 UTC. Updated an hour ago

Ground ~20,000 ft ~40,000 ft Winds

METAR

KSEP 271755Z AUTO 13007KT 10SM CLR 34/19 A2988 RMK AO2 T03370186 10337 20224

TAF

Not found

Frequencies

Recorded 118.07 MHz AWOS 3
Unicom 122.80 MHz CTAF/UNICOM
Warning: Do not use this data for real-world aviation or navigation. No guarantee of current accuracy is given.